createdAt,value
2022-11-03T00:02:02.578Z,44.41
2022-11-03T00:04:29.629Z,44.41
2022-11-03T00:06:56.912Z,44.39
2022-11-03T00:09:27.245Z,44.39
2022-11-03T00:11:54.511Z,44.19
2022-11-03T00:14:21.422Z,44.61
2022-11-03T00:16:48.724Z,44.67
2022-11-03T00:19:17.423Z,44.54
2022-11-03T00:21:45.292Z,44.34
2022-11-03T00:24:13.224Z,44.43
2022-11-03T00:26:40.447Z,44.44
2022-11-03T00:29:10.611Z,44.58
2022-11-03T00:31:40.158Z,44.59
2022-11-03T00:34:07.819Z,44.50
2022-11-03T00:36:37.387Z,44.54
2022-11-03T00:39:05.459Z,44.73
2022-11-03T00:41:32.713Z,44.84
2022-11-03T00:43:59.769Z,44.77
2022-11-03T00:46:27.588Z,44.88
2022-11-03T00:48:54.564Z,44.88
2022-11-03T00:51:24.883Z,45.10
2022-11-03T00:53:54.154Z,44.83
2022-11-03T00:56:40.930Z,44.72
2022-11-03T00:59:09.557Z,44.67
2022-11-03T01:01:47.469Z,44.68
2022-11-03T01:04:34.937Z,44.56
2022-11-03T01:07:03.254Z,44.35
2022-11-03T01:09:35.884Z,44.23
2022-11-03T01:12:07.947Z,44.40
2022-11-03T01:14:49.828Z,44.40
2022-11-03T01:17:25.182Z,44.44
2022-11-03T01:19:52.798Z,44.55
2022-11-03T01:22:20.665Z,44.45
2022-11-03T01:24:47.719Z,44.41
2022-11-03T01:27:17.393Z,44.58
2022-11-03T01:29:44.636Z,44.75
2022-11-03T01:32:11.852Z,44.74
2022-11-03T01:34:39.284Z,44.50
2022-11-03T01:37:06.907Z,44.47
2022-11-03T01:39:34.003Z,44.56
2022-11-03T01:42:01.078Z,44.57
2022-11-03T01:44:31.208Z,44.89
2022-11-03T01:47:01.678Z,44.79
2022-11-03T01:49:31.129Z,44.96
2022-11-03T01:52:20.341Z,44.74
2022-11-03T01:54:54.661Z,44.65
2022-11-03T01:57:27.344Z,44.92
2022-11-03T01:59:58.472Z,45.18
2022-11-03T02:02:27.667Z,45.43
2022-11-03T02:04:58.272Z,45.43
2022-11-03T02:07:39.341Z,45.58
2022-11-03T02:10:06.868Z,45.48
2022-11-03T02:12:34.881Z,45.48
2022-11-03T02:15:15.260Z,45.70
2022-11-03T02:17:44.585Z,45.80
2022-11-03T02:20:21.320Z,46.08
2022-11-03T02:22:48.169Z,46.15
2022-11-03T02:25:43.060Z,46.09
2022-11-03T02:28:12.147Z,45.96
2022-11-03T02:31:02.995Z,46.29
2022-11-03T02:33:29.961Z,46.38
2022-11-03T02:36:19.977Z,46.26
2022-11-03T02:39:09.337Z,46.61
2022-11-03T02:41:39.114Z,46.36
2022-11-03T02:44:12.239Z,46.50
2022-11-03T02:46:41.922Z,46.45
2022-11-03T02:49:08.910Z,46.72
2022-11-03T02:51:35.934Z,47.05
2022-11-03T02:54:21.950Z,47.16
2022-11-03T02:57:01.226Z,47.47
2022-11-03T02:59:33.851Z,47.77
2022-11-03T03:02:09.449Z,47.98
2022-11-03T03:04:42.901Z,48.10
2022-11-03T03:07:34.262Z,48.05
2022-11-03T03:10:16.772Z,48.23
2022-11-03T03:12:49.276Z,48.19
2022-11-03T03:15:18.673Z,48.55
2022-11-03T03:17:52.045Z,48.48
2022-11-03T03:20:31.782Z,48.39
2022-11-03T03:23:12.891Z,48.29
2022-11-03T03:25:49.396Z,48.62
2022-11-03T03:28:25.088Z,48.80
2022-11-03T03:30:55.058Z,49.52
2022-11-03T03:33:23.005Z,49.87
2022-11-03T03:35:53.034Z,49.55
2022-11-03T03:38:27.912Z,49.95
2022-11-03T03:40:56.911Z,49.57
2022-11-03T03:43:26.732Z,49.24
2022-11-03T03:45:58.312Z,49.05
2022-11-03T03:48:25.392Z,49.59
2022-11-03T03:50:53.169Z,49.58
2022-11-03T03:53:20.390Z,49.57
2022-11-03T03:55:51.109Z,49.36
2022-11-03T03:58:18.620Z,49.26
2022-11-03T04:00:45.820Z,49.24
2022-11-03T04:03:21.899Z,50.04
2022-11-03T04:05:49.450Z,50.53
2022-11-03T04:08:17.536Z,50.48
2022-11-03T04:11:04.187Z,50.29
2022-11-03T04:13:50.328Z,50.22
2022-11-03T04:16:35.968Z,50.41
2022-11-03T04:19:21.707Z,50.44
2022-11-03T04:22:07.601Z,50.39
2022-11-03T04:24:34.604Z,50.56
2022-11-03T04:27:15.887Z,50.69
2022-11-03T04:29:42.986Z,50.30
2022-11-03T04:32:16.203Z,50.25
2022-11-03T04:34:43.366Z,50.09
2022-11-03T04:37:13.489Z,50.05
2022-11-03T04:39:40.876Z,49.56
2022-11-03T04:42:21.887Z,50.15
2022-11-03T04:44:49.454Z,50.13
2022-11-03T04:47:17.735Z,50.00
2022-11-03T04:49:48.616Z,49.93
2022-11-03T04:52:22.317Z,50.49
2022-11-03T04:54:53.607Z,50.40
2022-11-03T04:57:20.608Z,50.63
2022-11-03T04:59:50.584Z,50.41
2022-11-03T05:02:21.144Z,50.75
2022-11-03T05:04:48.079Z,50.66
2022-11-03T05:07:35.008Z,50.83
2022-11-03T05:10:04.637Z,51.16
2022-11-03T05:12:31.569Z,51.50
2022-11-03T05:14:59.109Z,51.24
2022-11-03T05:17:28.490Z,51.07
2022-11-03T05:20:00.308Z,51.26
2022-11-03T05:22:34.123Z,51.47
2022-11-03T05:25:04.022Z,51.15
2022-11-03T05:27:30.997Z,51.50
2022-11-03T05:30:01.033Z,51.68
2022-11-03T05:32:33.092Z,52.49
2022-11-03T05:35:00.501Z,52.43
2022-11-03T05:37:35.396Z,52.41
2022-11-03T05:40:05.139Z,52.29
2022-11-03T05:42:36.525Z,52.39
2022-11-03T05:45:37.335Z,52.70
2022-11-03T05:48:14.059Z,52.41
2022-11-03T05:50:42.371Z,52.86
2022-11-03T05:53:29.864Z,52.94
2022-11-03T05:56:02.491Z,53.46
2022-11-03T05:58:35.211Z,53.65
2022-11-03T06:01:05.287Z,53.69
2022-11-03T06:03:36.677Z,54.12
2022-11-03T06:06:15.535Z,54.33
2022-11-03T06:08:46.013Z,54.59
2022-11-03T06:11:26.120Z,55.26
2022-11-03T06:13:53.227Z,54.98
2022-11-03T06:16:59.959Z,55.52
2022-11-03T06:19:34.792Z,55.96
2022-11-03T06:22:26.395Z,56.15
2022-11-03T06:24:59.362Z,56.49
2022-11-03T06:27:31.042Z,56.23
2022-11-03T06:30:02.033Z,54.89
2022-11-03T06:32:29.557Z,54.15
2022-11-03T06:34:58.656Z,51.97
2022-11-03T06:37:32.834Z,52.99
2022-11-03T06:40:11.973Z,54.21
2022-11-03T06:42:40.135Z,54.30
2022-11-03T06:45:20.439Z,54.39
2022-11-03T06:47:47.739Z,54.31
2022-11-03T06:50:32.570Z,53.65
2022-11-03T06:53:04.500Z,53.42
2022-11-03T06:55:34.627Z,54.10
2022-11-03T06:58:28.610Z,54.15
2022-11-03T07:01:03.556Z,54.26
2022-11-03T07:03:35.419Z,53.15
2022-11-03T07:06:11.362Z,52.65
2022-11-03T07:08:45.532Z,52.49
2022-11-03T07:11:20.015Z,53.22
2022-11-03T07:13:49.618Z,54.05
2022-11-03T07:16:36.961Z,53.95
2022-11-03T07:19:06.053Z,52.25
2022-11-03T07:21:46.475Z,52.33
2022-11-03T07:24:43.567Z,50.57
2022-11-03T07:27:27.009Z,49.91
2022-11-03T07:29:58.881Z,49.13
2022-11-03T07:32:33.243Z,46.77
2022-11-03T07:35:05.816Z,48.02
2022-11-03T07:37:32.780Z,45.71
2022-11-03T07:39:59.662Z,45.56
2022-11-03T07:42:27.638Z,44.82
2022-11-03T07:45:00.048Z,45.21
2022-11-03T07:47:29.149Z,43.83
2022-11-03T07:49:56.678Z,44.47
2022-11-03T07:52:26.039Z,43.74
2022-11-03T07:54:57.244Z,43.04
2022-11-03T07:57:32.288Z,43.35
2022-11-03T08:00:09.094Z,45.40
2022-11-03T08:02:51.651Z,48.46
2022-11-03T08:07:46.352Z,47.20
2022-11-03T08:10:13.898Z,45.23
2022-11-03T08:12:40.792Z,47.33
2022-11-03T08:15:08.276Z,46.54
2022-11-03T08:17:35.231Z,46.06
2022-11-03T08:20:02.164Z,47.18
2022-11-03T08:22:30.078Z,47.82
2022-11-03T08:24:56.944Z,42.00
2022-11-03T08:27:23.885Z,42.12
2022-11-03T08:29:50.769Z,46.29
2022-11-03T08:32:17.665Z,46.18
2022-11-03T08:34:44.553Z,45.23
2022-11-03T08:37:11.414Z,44.49
2022-11-03T08:39:38.269Z,44.24
2022-11-03T08:42:05.218Z,43.58
2022-11-03T08:44:32.088Z,43.71
2022-11-03T08:46:58.965Z,43.01
2022-11-03T08:49:25.925Z,42.97
2022-11-03T08:51:53.233Z,43.48
2022-11-03T08:54:20.073Z,43.27
2022-11-03T08:56:49.304Z,43.14
2022-11-03T08:59:18.212Z,42.39
2022-11-03T09:01:45.226Z,41.68
2022-11-03T09:04:12.202Z,41.71
2022-11-03T09:06:39.388Z,41.67
2022-11-03T09:11:53.226Z,40.95
2022-11-03T09:14:20.171Z,40.87
2022-11-03T09:16:47.038Z,40.71
2022-11-03T09:19:13.965Z,40.51
2022-11-03T09:21:40.835Z,38.13
2022-11-03T09:24:08.029Z,38.68
2022-11-03T09:26:35.004Z,37.30
2022-11-03T09:29:01.903Z,38.18
2022-11-03T09:31:29.394Z,36.39
2022-11-03T09:33:56.373Z,37.22
2022-11-03T09:36:23.235Z,38.23
2022-11-03T09:38:50.145Z,38.16
2022-11-03T09:41:27.581Z,37.75
2022-11-03T09:44:07.175Z,37.90
2022-11-03T09:46:35.400Z,34.37
2022-11-03T09:49:04.859Z,37.07
2022-11-03T09:51:32.832Z,37.47
2022-11-03T09:54:04.647Z,37.33
2022-11-03T09:56:32.488Z,37.29
2022-11-03T09:59:00.134Z,37.19
2022-11-03T10:01:27.682Z,36.78
2022-11-03T10:03:59.713Z,35.08
2022-11-03T10:06:26.659Z,35.83
2022-11-03T10:08:53.579Z,36.31
2022-11-03T10:11:20.437Z,35.82
2022-11-03T10:13:53.039Z,36.06
2022-11-03T10:16:23.285Z,35.98
2022-11-03T10:18:50.730Z,35.73
2022-11-03T10:21:17.606Z,36.69
2022-11-03T10:23:45.291Z,36.26
2022-11-03T10:26:18.798Z,36.32
2022-11-03T10:29:05.654Z,36.34
2022-11-03T10:31:34.029Z,34.80
2022-11-03T10:34:00.986Z,35.12
2022-11-03T10:36:30.367Z,35.62
2022-11-03T10:38:58.162Z,35.51
2022-11-03T10:41:28.649Z,35.45
2022-11-03T10:44:31.431Z,34.22
2022-11-03T10:47:07.024Z,35.41
2022-11-03T10:49:43.243Z,35.20
2022-11-03T10:52:21.140Z,36.66
2022-11-03T10:54:49.879Z,36.66
2022-11-03T10:57:18.080Z,36.10
2022-11-03T10:59:47.235Z,36.11
2022-11-03T11:02:19.261Z,35.60
2022-11-03T11:04:48.164Z,36.53
2022-11-03T11:07:32.764Z,35.93
2022-11-03T11:10:14.098Z,34.52
2022-11-03T11:13:04.210Z,33.97
2022-11-03T11:15:39.303Z,34.56
2022-11-03T11:18:06.291Z,35.29
2022-11-03T11:20:43.999Z,35.73
2022-11-03T11:23:29.204Z,34.72
2022-11-03T11:26:11.438Z,35.37
2022-11-03T11:28:46.913Z,36.38
2022-11-03T11:31:22.763Z,36.45
2022-11-03T11:33:50.120Z,36.71
2022-11-03T11:36:23.112Z,36.82
2022-11-03T11:38:52.362Z,35.24
2022-11-03T11:41:20.951Z,35.74
2022-11-03T11:43:47.952Z,38.14
2022-11-03T11:46:23.885Z,37.26
2022-11-03T11:49:15.527Z,36.85
2022-11-03T11:51:42.715Z,36.29
2022-11-03T11:54:18.577Z,37.93
2022-11-03T11:56:48.623Z,38.77
2022-11-03T11:59:25.329Z,37.38
2022-11-03T12:01:56.858Z,38.35
2022-11-03T12:04:33.286Z,37.61
2022-11-03T12:07:00.248Z,36.75
2022-11-03T12:09:28.346Z,36.61
2022-11-03T12:12:07.998Z,37.17
2022-11-03T12:14:37.886Z,37.62
2022-11-03T12:17:17.116Z,35.80
2022-11-03T12:19:45.087Z,35.88
2022-11-03T12:22:24.310Z,35.23
2022-11-03T12:25:02.205Z,36.46
2022-11-03T12:27:29.291Z,36.59
2022-11-03T12:29:58.233Z,35.08
2022-11-03T12:32:33.835Z,35.52
2022-11-03T12:35:06.437Z,35.86
2022-11-03T12:37:33.437Z,35.98
2022-11-03T12:40:00.429Z,35.07
2022-11-03T12:42:27.448Z,36.01
2022-11-03T12:44:54.368Z,36.44
2022-11-03T12:47:21.478Z,36.60
2022-11-03T12:49:48.650Z,34.49
2022-11-03T12:52:16.199Z,35.13
2022-11-03T12:54:43.106Z,35.23
2022-11-03T12:57:10.069Z,35.39
2022-11-03T12:59:37.059Z,34.11
2022-11-03T13:02:04.440Z,34.74
2022-11-03T13:04:31.668Z,34.88
2022-11-03T13:06:58.836Z,34.77
2022-11-03T13:09:26.180Z,34.79
2022-11-03T13:12:11.824Z,33.97
2022-11-03T13:14:38.770Z,33.82
2022-11-03T13:17:05.649Z,35.20
2022-11-03T13:19:32.555Z,36.23
2022-11-03T13:22:00.070Z,36.77
2022-11-03T13:24:26.975Z,36.98
2022-11-03T13:26:53.881Z,36.64
2022-11-03T13:29:20.864Z,36.08
2022-11-03T13:31:47.880Z,36.10
2022-11-03T13:34:14.723Z,36.87
2022-11-03T13:36:41.614Z,36.42
2022-11-03T13:39:08.494Z,36.96
2022-11-03T13:41:37.974Z,37.30
2022-11-03T13:44:04.920Z,36.44
2022-11-03T13:46:31.925Z,35.81
2022-11-03T13:51:45.778Z,35.42
2022-11-03T13:59:46.522Z,37.14
2022-11-03T14:05:01.420Z,37.61
2022-11-03T14:07:28.949Z,38.39
2022-11-03T14:09:58.017Z,39.26
2022-11-03T14:12:30.849Z,39.23
2022-11-03T14:15:02.092Z,38.92
2022-11-03T14:17:29.071Z,39.22
2022-11-03T14:20:00.744Z,39.14
2022-11-03T14:22:30.736Z,39.31
2022-11-03T14:24:57.762Z,38.44
2022-11-03T14:27:25.158Z,38.84
2022-11-03T14:29:52.280Z,39.11
2022-11-03T14:32:20.056Z,38.88
2022-11-03T14:34:47.965Z,38.94
2022-11-03T14:37:15.291Z,39.21
2022-11-03T14:39:42.448Z,39.31
2022-11-03T14:42:16.010Z,39.84
2022-11-03T14:44:46.956Z,40.71
2022-11-03T14:47:17.955Z,41.05
2022-11-03T14:49:46.588Z,41.09
2022-11-03T14:52:14.292Z,40.93
2022-11-03T14:54:44.529Z,40.88
2022-11-03T14:57:11.682Z,41.26
2022-11-03T14:59:38.670Z,41.14
2022-11-03T15:02:06.482Z,41.44
2022-11-03T15:04:33.910Z,40.96
2022-11-03T15:07:00.963Z,40.92
2022-11-03T15:09:27.902Z,41.55
2022-11-03T15:11:55.071Z,41.44
2022-11-03T15:14:22.010Z,41.53
2022-11-03T15:16:49.029Z,41.49
2022-11-03T15:19:16.181Z,41.56
2022-11-03T15:21:43.272Z,41.69
2022-11-03T15:26:57.065Z,40.68
2022-11-03T15:29:24.214Z,41.52
2022-11-03T15:31:51.904Z,41.84
2022-11-03T15:34:18.916Z,41.89
2022-11-03T15:36:45.869Z,42.07
2022-11-03T15:39:13.554Z,41.76
2022-11-03T15:41:40.746Z,41.22
2022-11-03T15:44:07.635Z,41.42
2022-11-03T15:46:35.802Z,42.39
2022-11-03T15:49:03.338Z,42.33
2022-11-03T15:51:30.256Z,42.23
2022-11-03T15:53:59.088Z,41.70
2022-11-03T15:56:27.508Z,42.16
2022-11-03T15:58:54.512Z,41.72
2022-11-03T16:01:21.575Z,41.71
2022-11-03T16:03:48.600Z,41.55
2022-11-03T16:06:15.648Z,42.21
2022-11-03T16:08:42.547Z,42.21
2022-11-03T16:11:09.470Z,42.04
2022-11-03T16:13:36.364Z,42.02
2022-11-03T16:16:03.657Z,41.27
2022-11-03T16:18:30.603Z,41.03
2022-11-03T16:20:57.506Z,41.87
2022-11-03T16:23:24.507Z,42.46
2022-11-03T16:25:51.430Z,42.52
2022-11-03T16:28:18.263Z,42.69
2022-11-03T16:30:49.718Z,42.95
2022-11-03T16:33:19.852Z,43.46
2022-11-03T16:35:46.725Z,43.75
2022-11-03T16:38:15.502Z,43.99
2022-11-03T16:40:43.146Z,43.81
2022-11-03T16:43:10.199Z,44.24
2022-11-03T16:45:38.075Z,44.49
2022-11-03T16:48:07.046Z,44.61
2022-11-03T16:50:34.991Z,45.10
2022-11-03T16:53:02.150Z,45.22
2022-11-03T16:55:29.012Z,45.49
2022-11-03T16:57:56.512Z,45.51
2022-11-03T17:00:24.634Z,45.41
2022-11-03T17:02:53.157Z,45.26
2022-11-03T17:05:21.962Z,45.47
2022-11-03T17:07:53.596Z,45.39
2022-11-03T17:10:22.108Z,45.20
2022-11-03T17:12:50.265Z,45.13
2022-11-03T17:15:17.833Z,45.17
2022-11-03T17:17:45.194Z,45.03
2022-11-03T17:20:13.214Z,45.22
2022-11-03T17:22:40.484Z,45.49
2022-11-03T17:25:09.655Z,45.21
2022-11-03T17:27:46.773Z,45.32
2022-11-03T17:30:24.960Z,45.58
2022-11-03T17:32:55.821Z,45.52
2022-11-03T17:35:42.548Z,45.67
2022-11-03T17:38:28.405Z,45.81
2022-11-03T17:40:55.342Z,46.35
2022-11-03T17:43:27.399Z,46.40
2022-11-03T17:45:54.526Z,46.31
2022-11-03T17:48:23.376Z,46.33
2022-11-03T17:50:53.746Z,46.37
2022-11-03T17:53:41.775Z,46.64
2022-11-03T17:56:29.553Z,46.54
2022-11-03T17:58:57.837Z,46.52
2022-11-03T18:01:27.667Z,46.56
2022-11-03T18:03:55.125Z,46.49
2022-11-03T18:06:22.456Z,46.44
2022-11-03T18:08:49.994Z,46.42
2022-11-03T18:11:47.361Z,46.52
2022-11-03T18:14:14.767Z,46.93
2022-11-03T18:16:41.884Z,46.66
2022-11-03T18:19:13.452Z,46.60
2022-11-03T18:21:41.117Z,46.50
2022-11-03T18:24:19.716Z,46.48
2022-11-03T18:26:46.586Z,46.49
2022-11-03T18:29:13.478Z,46.61
2022-11-03T18:31:44.221Z,46.97
2022-11-03T18:34:31.486Z,46.91
2022-11-03T18:36:58.447Z,46.84
2022-11-03T18:39:27.982Z,46.81
2022-11-03T18:41:55.697Z,46.84
2022-11-03T18:44:28.462Z,47.07
2022-11-03T18:46:56.255Z,46.48
2022-11-03T18:49:24.983Z,47.01
2022-11-03T18:52:02.107Z,47.25
2022-11-03T18:54:32.295Z,47.34
2022-11-03T18:56:59.405Z,47.49
2022-11-03T18:59:29.363Z,47.99
2022-11-03T19:01:56.680Z,48.18
2022-11-03T19:04:24.171Z,48.21
2022-11-03T19:06:52.951Z,48.07
2022-11-03T19:09:26.150Z,48.52
2022-11-03T19:11:56.502Z,48.54
2022-11-03T19:14:28.801Z,48.66
2022-11-03T19:19:47.387Z,49.02
2022-11-03T19:22:22.253Z,49.15
2022-11-03T19:24:49.082Z,49.22
2022-11-03T19:27:25.687Z,49.77
2022-11-03T19:29:53.637Z,49.48
2022-11-03T19:32:33.598Z,49.65
2022-11-03T19:35:04.950Z,50.32
2022-11-03T19:37:35.708Z,49.89
2022-11-03T19:40:09.020Z,50.54
2022-11-03T19:42:39.771Z,50.33
2022-11-03T19:45:29.130Z,50.56
2022-11-03T19:48:23.793Z,50.43
2022-11-03T19:50:44.724Z,50.03
2022-11-03T19:53:19.087Z,50.11
2022-11-03T19:55:46.439Z,49.67
2022-11-03T19:58:27.438Z,49.69
2022-11-03T20:00:55.408Z,49.55
2022-11-03T20:03:23.472Z,49.61
2022-11-03T20:05:56.668Z,49.93
2022-11-03T20:08:26.122Z,49.86
2022-11-03T20:10:53.578Z,50.05
2022-11-03T20:13:23.590Z,49.78
2022-11-03T20:15:53.575Z,49.61
2022-11-03T20:18:22.839Z,49.45
2022-11-03T20:20:49.869Z,49.32
2022-11-03T20:23:31.219Z,49.41
2022-11-03T20:25:58.618Z,49.34
2022-11-03T20:28:28.575Z,49.48
2022-11-03T20:30:56.439Z,49.51
2022-11-03T20:33:24.907Z,49.74
2022-11-03T20:35:53.558Z,49.68
2022-11-03T20:38:21.924Z,50.80
2022-11-03T20:40:55.742Z,50.47
2022-11-03T20:43:33.297Z,50.57
2022-11-03T20:46:03.369Z,50.54
2022-11-03T20:48:30.228Z,50.76
2022-11-03T20:50:57.505Z,51.06
2022-11-03T20:53:25.762Z,51.09
2022-11-03T20:55:53.593Z,51.36
2022-11-03T20:58:20.636Z,51.44
2022-11-03T21:00:48.778Z,51.46
2022-11-03T21:03:57.716Z,51.49
2022-11-03T21:06:18.799Z,51.19
2022-11-03T21:08:47.465Z,51.55
2022-11-03T21:11:28.542Z,51.80
2022-11-03T21:14:01.381Z,51.68
2022-11-03T21:16:48.522Z,51.74
2022-11-03T21:19:42.754Z,51.50
2022-11-03T21:22:56.650Z,51.73
2022-11-03T21:25:24.825Z,51.81
2022-11-03T21:27:54.046Z,51.56
2022-11-03T21:30:22.544Z,51.88
2022-11-03T21:32:49.500Z,52.05
2022-11-03T21:35:19.341Z,51.83
2022-11-03T21:37:47.244Z,51.17
2022-11-03T21:40:14.593Z,51.36
2022-11-03T21:43:00.219Z,51.45
2022-11-03T21:45:27.455Z,51.91
2022-11-03T21:48:14.704Z,52.24
2022-11-03T21:50:43.059Z,52.37
2022-11-03T21:53:10.908Z,52.41
2022-11-03T21:55:38.371Z,52.18
2022-11-03T21:58:05.316Z,52.28
2022-11-03T22:00:32.570Z,52.17
2022-11-03T22:03:00.823Z,52.43
2022-11-03T22:05:28.282Z,52.36
2022-11-03T22:07:55.474Z,52.20
2022-11-03T22:10:22.786Z,52.17
2022-11-03T22:12:49.867Z,52.03
2022-11-03T22:15:35.415Z,52.19
2022-11-03T22:18:06.504Z,51.63
2022-11-03T22:20:54.274Z,51.86
2022-11-03T22:23:40.063Z,51.66
2022-11-03T22:26:29.680Z,52.41
2022-11-03T22:29:17.060Z,52.19
2022-11-03T22:31:44.405Z,52.64
2022-11-03T22:34:29.885Z,52.75
2022-11-03T22:36:56.766Z,52.62
2022-11-03T22:39:42.484Z,52.79
2022-11-03T22:42:30.165Z,52.79
2022-11-03T22:45:16.111Z,53.00
2022-11-03T22:47:43.053Z,52.97
2022-11-03T22:50:10.206Z,53.08
2022-11-03T22:52:37.147Z,52.80
2022-11-03T22:55:04.904Z,53.17
2022-11-03T22:57:31.805Z,52.88
2022-11-03T22:59:58.809Z,53.14
2022-11-03T23:02:25.814Z,53.21
2022-11-03T23:04:52.764Z,53.07
2022-11-03T23:07:19.602Z,53.28
2022-11-03T23:09:46.553Z,53.07
2022-11-03T23:12:13.572Z,52.80
2022-11-03T23:14:59.147Z,53.23
2022-11-03T23:17:45.958Z,53.09
2022-11-03T23:20:32.653Z,53.07
2022-11-03T23:22:59.552Z,53.11
2022-11-03T23:25:26.416Z,52.81
2022-11-03T23:27:53.365Z,53.02
2022-11-03T23:30:20.289Z,53.31
2022-11-03T23:32:47.137Z,53.44
2022-11-03T23:35:14.768Z,53.58
2022-11-03T23:37:41.718Z,53.74
2022-11-03T23:40:09.150Z,53.52
2022-11-03T23:42:36.115Z,53.48
2022-11-03T23:45:21.983Z,53.61
2022-11-03T23:48:07.803Z,53.81
2022-11-03T23:50:34.875Z,54.20
2022-11-03T23:53:01.746Z,54.07
2022-11-03T23:55:48.996Z,54.22
2022-11-03T23:58:18.932Z,54.23
